createdAt,value
2023-02-27T00:00:14.920Z,2.72
2023-02-27T00:02:44.234Z,2.97
2023-02-27T00:05:11.760Z,3.40
2023-02-27T00:07:38.699Z,3.05
2023-02-27T00:10:06.492Z,3.10
2023-02-27T00:12:37.908Z,3.13
2023-02-27T00:15:13.090Z,3.17
2023-02-27T00:17:41.097Z,2.67
2023-02-27T00:20:13.004Z,2.58
2023-02-27T00:22:42.153Z,2.78
2023-02-27T00:25:10.172Z,2.92
2023-02-27T00:27:37.077Z,2.50
2023-02-27T00:30:06.657Z,2.60
2023-02-27T00:32:33.717Z,2.20
2023-02-27T00:35:00.454Z,2.20
2023-02-27T00:37:27.264Z,2.50
2023-02-27T00:39:53.880Z,2.60
2023-02-27T00:42:20.566Z,2.72
2023-02-27T00:44:47.342Z,2.08
2023-02-27T00:47:14.081Z,2.65
2023-02-27T00:49:40.826Z,2.33
2023-02-27T00:52:07.521Z,2.38
2023-02-27T00:54:34.164Z,2.45
2023-02-27T00:57:00.795Z,2.03
2023-02-27T00:59:27.907Z,2.72
2023-02-27T01:01:55.066Z,2.00
2023-02-27T01:04:22.127Z,2.22
2023-02-27T01:06:49.244Z,2.15
2023-02-27T01:09:15.898Z,2.40
2023-02-27T01:11:43.765Z,2.00
2023-02-27T01:14:10.465Z,2.90
2023-02-27T01:16:37.194Z,2.33
2023-02-27T01:19:04.413Z,2.13
2023-02-27T01:21:31.064Z,1.90
2023-02-27T01:23:58.147Z,2.08
2023-02-27T01:26:25.653Z,2.05
2023-02-27T01:28:52.545Z,1.92
2023-02-27T01:31:19.468Z,1.92
2023-02-27T01:33:46.213Z,2.10
2023-02-27T01:36:12.904Z,2.10
2023-02-27T01:38:39.555Z,1.95
2023-02-27T01:41:07.493Z,2.00
2023-02-27T01:43:35.342Z,1.87
2023-02-27T01:46:02.522Z,1.80
2023-02-27T01:48:34.990Z,1.90
2023-02-27T01:51:10.787Z,1.92
2023-02-27T01:53:39.846Z,2.05
2023-02-27T01:56:23.565Z,2.20
2023-02-27T01:58:53.032Z,1.90
2023-02-27T02:01:20.905Z,1.58
2023-02-27T02:04:09.182Z,1.73
2023-02-27T02:06:39.715Z,1.88
2023-02-27T02:09:08.471Z,2.08
2023-02-27T02:11:35.381Z,1.95
2023-02-27T02:14:02.818Z,1.73
2023-02-27T02:16:51.695Z,2.10
2023-02-27T02:19:34.691Z,1.90
2023-02-27T02:22:23.133Z,1.90
2023-02-27T02:25:28.488Z,2.28
2023-02-27T02:28:32.904Z,1.85
2023-02-27T02:31:42.153Z,1.80
2023-02-27T02:34:42.724Z,1.73
2023-02-27T02:37:34.339Z,1.55
2023-02-27T02:40:04.819Z,1.75
2023-02-27T02:42:34.938Z,1.58
2023-02-27T02:45:29.226Z,1.70
2023-02-27T02:48:07.830Z,1.70
2023-02-27T02:51:11.415Z,1.80
2023-02-27T02:54:04.319Z,1.73
2023-02-27T02:56:41.392Z,1.45
2023-02-27T02:59:24.756Z,2.08
2023-02-27T03:02:10.235Z,1.95
2023-02-27T03:04:40.192Z,1.58
2023-02-27T03:07:24.090Z,1.98
2023-02-27T03:09:57.358Z,2.30
2023-02-27T03:12:27.163Z,1.90
2023-02-27T03:15:06.028Z,2.05
2023-02-27T03:18:09.383Z,2.83
2023-02-27T03:20:51.455Z,1.83
2023-02-27T03:23:30.499Z,2.00
2023-02-27T03:25:58.583Z,1.80
2023-02-27T03:28:30.898Z,1.90
2023-02-27T03:31:14.151Z,1.98
2023-02-27T03:34:20.833Z,2.15
2023-02-27T03:37:01.691Z,1.90
2023-02-27T03:39:41.762Z,1.98
2023-02-27T03:42:38.630Z,2.15
2023-02-27T03:45:29.720Z,2.03
2023-02-27T03:47:57.952Z,1.52
2023-02-27T03:50:26.101Z,1.92
2023-02-27T03:52:53.496Z,2.47
2023-02-27T03:55:34.874Z,2.03
2023-02-27T03:58:01.754Z,1.88
2023-02-27T04:00:29.737Z,2.00
2023-02-27T04:02:58.511Z,2.60
2023-02-27T04:05:26.147Z,2.15
2023-02-27T04:08:08.519Z,1.70
2023-02-27T04:10:49.581Z,2.05
2023-02-27T04:13:43.847Z,2.13
2023-02-27T04:16:17.070Z,2.10
2023-02-27T04:18:58.815Z,1.70
2023-02-27T04:21:26.263Z,2.10
2023-02-27T04:23:56.672Z,2.05
2023-02-27T04:26:40.400Z,2.25
2023-02-27T04:29:20.354Z,1.90
2023-02-27T04:32:02.255Z,2.55
2023-02-27T04:34:39.958Z,1.90
2023-02-27T04:37:17.184Z,2.08
2023-02-27T04:39:57.058Z,2.17
2023-02-27T04:42:28.343Z,2.17
2023-02-27T04:45:00.636Z,1.95
2023-02-27T04:47:31.371Z,2.22
2023-02-27T04:50:25.537Z,1.90
2023-02-27T04:52:59.862Z,1.77
2023-02-27T04:55:35.920Z,2.08
2023-02-27T04:58:10.220Z,2.13
2023-02-27T05:00:39.875Z,2.15
2023-02-27T05:03:11.299Z,2.03
2023-02-27T05:05:41.267Z,1.90
2023-02-27T05:08:14.920Z,1.80
2023-02-27T05:11:27.289Z,2.13
2023-02-27T05:14:01.275Z,1.98
2023-02-27T05:17:03.230Z,1.70
2023-02-27T05:19:32.463Z,1.80
2023-02-27T05:22:33.346Z,2.28
2023-02-27T05:25:10.891Z,2.08
2023-02-27T05:27:49.760Z,2.03
2023-02-27T05:32:57.417Z,2.00
2023-02-27T05:35:32.597Z,2.20
2023-02-27T05:38:13.170Z,3.13
2023-02-27T05:40:45.178Z,4.00
2023-02-27T05:43:26.869Z,8.50
2023-02-27T05:46:03.766Z,8.05
2023-02-27T05:48:35.494Z,8.07
2023-02-27T05:51:06.098Z,7.28
2023-02-27T05:53:37.821Z,7.10
2023-02-27T05:56:06.519Z,7.80
2023-02-27T05:58:38.295Z,11.30
2023-02-27T06:01:07.834Z,10.50
2023-02-27T06:03:36.389Z,9.55
2023-02-27T06:06:07.498Z,9.85
2023-02-27T06:08:35.091Z,10.13
2023-02-27T06:11:01.918Z,12.88
2023-02-27T06:13:28.733Z,13.45
2023-02-27T06:15:55.558Z,13.27
2023-02-27T06:18:23.016Z,14.23
2023-02-27T06:20:50.122Z,13.02
2023-02-27T06:23:17.302Z,11.68
2023-02-27T06:25:44.025Z,11.88
2023-02-27T06:28:11.294Z,11.05
2023-02-27T06:30:38.468Z,9.68
2023-02-27T06:33:05.534Z,7.47
2023-02-27T06:35:32.737Z,5.70
2023-02-27T06:37:59.563Z,4.10
2023-02-27T06:40:26.432Z,2.95
2023-02-27T06:42:53.191Z,2.80
2023-02-27T06:45:19.958Z,3.33
2023-02-27T06:47:46.823Z,3.15
2023-02-27T06:50:14.336Z,2.15
2023-02-27T06:52:41.842Z,2.05
2023-02-27T06:55:09.791Z,2.08
2023-02-27T06:57:36.894Z,2.13
2023-02-27T07:00:06.980Z,1.88
2023-02-27T07:02:33.801Z,2.63
2023-02-27T07:05:00.645Z,2.22
2023-02-27T07:07:37.940Z,1.98
2023-02-27T07:10:08.534Z,2.25
2023-02-27T07:12:35.284Z,2.10
2023-02-27T07:15:02.012Z,2.33
2023-02-27T07:17:29.851Z,2.20
2023-02-27T07:19:56.500Z,2.17
2023-02-27T07:22:23.292Z,2.42
2023-02-27T07:24:50.025Z,1.98
2023-02-27T07:27:16.718Z,2.25
2023-02-27T07:29:43.369Z,2.50
2023-02-27T07:32:11.287Z,2.45
2023-02-27T07:34:38.515Z,1.90
2023-02-27T07:37:05.334Z,2.10
2023-02-27T07:39:32.019Z,2.30
2023-02-27T07:42:00.141Z,2.20
2023-02-27T07:44:26.893Z,2.30
2023-02-27T07:46:53.744Z,2.53
2023-02-27T07:49:20.493Z,3.00
2023-02-27T07:51:47.184Z,2.55
2023-02-27T07:54:13.968Z,3.10
2023-02-27T07:56:40.718Z,3.58
2023-02-27T07:59:07.479Z,2.95
2023-02-27T08:01:34.166Z,3.90
2023-02-27T08:04:00.972Z,6.25
2023-02-27T08:06:28.400Z,4.78
2023-02-27T08:08:55.445Z,11.05
2023-02-27T08:11:22.195Z,8.77
2023-02-27T08:14:05.425Z,9.52
2023-02-27T08:16:32.970Z,8.48
2023-02-27T08:19:00.527Z,5.32
2023-02-27T08:21:28.152Z,4.28
2023-02-27T08:23:55.324Z,4.05
2023-02-27T08:26:22.293Z,3.67
2023-02-27T08:28:49.159Z,3.40
2023-02-27T08:31:16.205Z,2.97
2023-02-27T08:33:42.879Z,2.88
2023-02-27T08:36:10.181Z,2.55
2023-02-27T08:38:37.013Z,3.67
2023-02-27T08:41:04.139Z,2.90
2023-02-27T08:43:30.903Z,3.13
2023-02-27T08:45:57.761Z,2.63
2023-02-27T08:48:24.927Z,2.50
2023-02-27T08:50:52.066Z,2.90
2023-02-27T08:53:19.172Z,3.15
2023-02-27T08:55:50.550Z,2.72
2023-02-27T08:58:18.224Z,2.72
2023-02-27T09:00:45.631Z,2.20
2023-02-27T09:03:12.671Z,3.00
2023-02-27T09:05:39.409Z,3.58
2023-02-27T09:08:07.148Z,2.22
2023-02-27T09:10:34.612Z,3.45
2023-02-27T09:13:01.613Z,2.53
2023-02-27T09:15:29.244Z,1.98
2023-02-27T09:18:00.148Z,2.20
2023-02-27T09:20:27.219Z,1.90
2023-02-27T09:22:53.899Z,2.13
2023-02-27T09:25:21.088Z,2.38
2023-02-27T09:27:48.796Z,2.00
2023-02-27T09:30:15.975Z,1.85
2023-02-27T09:32:42.727Z,2.00
2023-02-27T09:35:10.678Z,2.08
2023-02-27T09:37:37.540Z,2.00
2023-02-27T09:40:07.162Z,2.13
2023-02-27T09:42:41.361Z,1.60
2023-02-27T09:45:13.159Z,2.20
2023-02-27T09:47:42.694Z,2.08
2023-02-27T09:50:37.101Z,1.60
2023-02-27T09:53:04.961Z,1.60
2023-02-27T09:55:37.506Z,1.70
2023-02-27T09:58:31.075Z,1.75
2023-02-27T10:01:07.635Z,2.20
2023-02-27T10:03:53.017Z,1.95
2023-02-27T10:06:37.701Z,1.85
2023-02-27T10:09:31.082Z,2.10
2023-02-27T10:12:04.143Z,2.10
2023-02-27T10:14:51.891Z,1.98
2023-02-27T10:17:23.378Z,2.00
2023-02-27T10:19:52.642Z,2.00
2023-02-27T10:22:28.013Z,2.03
2023-02-27T10:25:08.989Z,1.77
2023-02-27T10:27:40.713Z,1.70
2023-02-27T10:30:32.898Z,1.60
2023-02-27T10:33:11.670Z,2.40
2023-02-27T10:35:44.669Z,1.65
2023-02-27T10:38:26.953Z,1.67
2023-02-27T10:40:56.812Z,1.40
2023-02-27T10:43:23.576Z,1.35
2023-02-27T10:45:50.764Z,1.60
2023-02-27T10:48:18.863Z,1.33
2023-02-27T10:50:51.952Z,1.48
2023-02-27T10:53:25.318Z,1.15
2023-02-27T10:56:02.453Z,1.10
2023-02-27T10:58:35.372Z,1.20
2023-02-27T11:01:08.148Z,1.20
2023-02-27T11:03:40.905Z,1.33
2023-02-27T11:06:25.242Z,1.10
2023-02-27T11:09:11.180Z,1.00
2023-02-27T11:11:38.273Z,0.80
2023-02-27T11:14:19.519Z,1.17
2023-02-27T11:16:50.757Z,1.20
2023-02-27T11:19:38.819Z,4.22
2023-02-27T11:22:18.478Z,2.72
2023-02-27T11:24:45.158Z,1.20
2023-02-27T11:27:27.039Z,1.23
2023-02-27T11:30:19.578Z,1.08
2023-02-27T11:32:51.442Z,1.00
2023-02-27T11:35:28.368Z,0.85
2023-02-27T11:37:58.568Z,1.00
2023-02-27T11:40:36.941Z,1.05
2023-02-27T11:43:25.644Z,1.27
2023-02-27T11:46:25.821Z,1.40
2023-02-27T11:48:52.855Z,0.98
2023-02-27T11:51:19.898Z,0.98
2023-02-27T11:53:53.196Z,0.90
2023-02-27T11:56:28.935Z,0.95
2023-02-27T11:59:00.960Z,0.75
2023-02-27T12:01:33.065Z,0.70
2023-02-27T12:04:29.059Z,1.08
2023-02-27T12:07:06.763Z,0.70
2023-02-27T12:09:57.627Z,0.90
2023-02-27T12:12:28.119Z,0.73
2023-02-27T12:14:58.453Z,0.75
2023-02-27T12:17:37.662Z,1.13
2023-02-27T12:20:11.444Z,0.73
2023-02-27T12:22:41.468Z,0.60
2023-02-27T12:25:32.240Z,0.80
2023-02-27T12:28:02.394Z,0.82
2023-02-27T12:30:48.237Z,0.80
2023-02-27T12:33:21.561Z,0.98
2023-02-27T12:35:51.872Z,0.73
2023-02-27T12:38:19.460Z,1.02
2023-02-27T12:40:55.408Z,0.65
2023-02-27T12:43:28.369Z,0.85
2023-02-27T12:46:27.355Z,0.98
2023-02-27T12:49:00.506Z,0.80
2023-02-27T12:52:02.970Z,0.80
2023-02-27T12:54:50.405Z,1.10
2023-02-27T12:57:17.463Z,0.90
2023-02-27T12:59:44.694Z,1.00
2023-02-27T13:02:31.466Z,1.23
2023-02-27T13:05:03.698Z,0.90
2023-02-27T13:08:07.077Z,1.10
2023-02-27T13:10:50.675Z,1.00
2023-02-27T13:13:44.014Z,0.88
2023-02-27T13:16:27.601Z,0.80
2023-02-27T13:18:56.984Z,1.20
2023-02-27T13:21:24.895Z,1.25
2023-02-27T13:24:10.052Z,0.88
2023-02-27T13:26:50.216Z,0.75
2023-02-27T13:29:20.118Z,0.95
2023-02-27T13:31:47.577Z,0.90
2023-02-27T13:34:33.318Z,1.00
2023-02-27T13:37:06.009Z,0.80
2023-02-27T13:39:46.897Z,0.90
2023-02-27T13:42:33.050Z,1.30
2023-02-27T13:45:06.257Z,0.77
2023-02-27T13:47:48.729Z,0.63
2023-02-27T13:50:48.374Z,0.70
2023-02-27T13:53:18.670Z,0.68
2023-02-27T13:55:45.986Z,1.50
2023-02-27T13:58:24.578Z,0.80
2023-02-27T14:00:57.315Z,0.95
2023-02-27T14:03:29.789Z,0.93
2023-02-27T14:06:01.048Z,0.70
2023-02-27T14:08:31.430Z,0.70
2023-02-27T14:11:08.475Z,1.10
2023-02-27T14:13:59.375Z,1.05
2023-02-27T14:16:38.355Z,0.70
2023-02-27T14:19:19.879Z,1.10
2023-02-27T14:22:01.172Z,0.85
2023-02-27T14:24:44.844Z,0.80
2023-02-27T14:27:22.773Z,0.85
2023-02-27T14:29:52.320Z,0.80
2023-02-27T14:32:30.220Z,0.68
2023-02-27T14:34:57.317Z,0.80
2023-02-27T14:37:26.356Z,0.70
2023-02-27T14:39:55.409Z,0.70
2023-02-27T14:42:41.093Z,0.80
2023-02-27T14:45:16.068Z,0.80
2023-02-27T14:47:45.650Z,0.90
2023-02-27T14:50:33.974Z,0.70
2023-02-27T14:55:31.284Z,0.80
2023-02-27T14:57:58.375Z,0.93
2023-02-27T15:00:39.921Z,0.80
2023-02-27T15:03:12.791Z,0.80
2023-02-27T15:05:40.080Z,0.82
2023-02-27T15:08:08.178Z,1.17
2023-02-27T15:10:35.432Z,1.85
2023-02-27T15:13:02.775Z,1.30
2023-02-27T15:15:29.851Z,2.72
2023-02-27T15:17:56.616Z,2.83
2023-02-27T15:20:23.738Z,1.92
2023-02-27T15:22:51.165Z,1.10
2023-02-27T15:25:28.067Z,1.20
2023-02-27T15:27:57.641Z,0.82
2023-02-27T15:30:24.794Z,0.73
2023-02-27T15:32:53.669Z,0.95
2023-02-27T15:35:28.570Z,0.90
2023-02-27T15:37:57.752Z,1.10
2023-02-27T15:40:26.621Z,0.95
2023-02-27T15:42:54.208Z,0.80
2023-02-27T15:45:22.456Z,0.80
2023-02-27T15:47:49.848Z,0.80
2023-02-27T15:50:16.952Z,0.80
2023-02-27T15:52:50.093Z,0.95
2023-02-27T15:55:22.167Z,0.90
2023-02-27T15:58:02.044Z,0.80
2023-02-27T16:00:31.577Z,0.70
2023-02-27T16:02:59.282Z,0.88
2023-02-27T16:05:36.767Z,1.00
2023-02-27T16:08:05.614Z,0.88
2023-02-27T16:10:43.523Z,1.05
2023-02-27T16:13:25.711Z,0.90
2023-02-27T16:16:00.184Z,1.08
2023-02-27T16:18:29.790Z,0.90
2023-02-27T16:20:59.616Z,0.90
2023-02-27T16:23:27.838Z,1.10
2023-02-27T16:26:02.934Z,0.85
2023-02-27T16:28:31.310Z,0.60
2023-02-27T16:30:58.422Z,1.00
2023-02-27T16:33:27.312Z,1.27
2023-02-27T16:36:05.642Z,1.88
2023-02-27T16:38:32.710Z,1.77
2023-02-27T16:40:59.940Z,3.15
2023-02-27T16:43:27.060Z,2.10
2023-02-27T16:45:56.430Z,2.00
2023-02-27T16:48:23.641Z,1.35
2023-02-27T16:50:50.817Z,1.48
2023-02-27T16:53:17.966Z,1.25
2023-02-27T16:55:45.084Z,1.38
2023-02-27T16:58:15.532Z,1.40
2023-02-27T17:00:43.094Z,1.58
2023-02-27T17:03:10.801Z,1.40
2023-02-27T17:05:38.039Z,1.40
2023-02-27T17:08:05.358Z,1.58
2023-02-27T17:10:32.564Z,1.27
2023-02-27T17:12:59.818Z,1.17
2023-02-27T17:15:29.780Z,1.10
2023-02-27T17:17:56.919Z,0.80
2023-02-27T17:20:26.032Z,0.90
2023-02-27T17:22:53.180Z,1.50
2023-02-27T17:25:20.404Z,1.90
2023-02-27T17:27:48.602Z,1.70
2023-02-27T17:30:15.983Z,1.50
2023-02-27T17:32:43.156Z,2.17
2023-02-27T17:35:10.706Z,1.60
2023-02-27T17:37:38.971Z,1.30
2023-02-27T17:40:08.106Z,1.85
2023-02-27T17:42:39.230Z,2.20
2023-02-27T17:45:07.572Z,1.98
2023-02-27T17:47:35.141Z,2.30
2023-02-27T17:50:02.730Z,1.95
2023-02-27T17:52:29.933Z,1.85
2023-02-27T17:54:56.823Z,1.55
2023-02-27T17:57:23.512Z,1.45
2023-02-27T17:59:50.146Z,1.48
2023-02-27T18:02:16.957Z,2.03
2023-02-27T18:04:43.960Z,1.92
2023-02-27T18:07:10.840Z,1.90
2023-02-27T18:09:37.506Z,2.20
2023-02-27T18:12:04.731Z,2.50
2023-02-27T18:14:31.518Z,2.38
2023-02-27T18:16:58.246Z,3.30
2023-02-27T18:19:25.216Z,2.97
2023-02-27T18:21:52.029Z,3.35
2023-02-27T18:24:18.775Z,2.72
2023-02-27T18:26:45.593Z,2.83
2023-02-27T18:29:14.007Z,2.88
2023-02-27T18:31:44.575Z,1.85
2023-02-27T18:34:12.283Z,2.10
2023-02-27T18:36:40.185Z,1.88
2023-02-27T18:39:07.569Z,1.70
2023-02-27T18:41:35.341Z,1.77
2023-02-27T18:44:02.084Z,1.77
2023-02-27T18:46:29.236Z,2.10
2023-02-27T18:48:56.583Z,2.15
2023-02-27T18:51:23.360Z,2.42
2023-02-27T18:53:50.861Z,2.90
2023-02-27T18:56:22.794Z,3.28
2023-02-27T18:58:50.588Z,3.00
2023-02-27T19:01:29.306Z,2.00
2023-02-27T19:06:28.736Z,2.63
2023-02-27T19:08:56.026Z,7.28
2023-02-27T19:11:33.246Z,13.77
2023-02-27T19:14:06.491Z,16.73
2023-02-27T19:16:34.070Z,23.65
2023-02-27T19:19:03.211Z,11.27
2023-02-27T19:21:30.045Z,16.48
2023-02-27T19:23:57.444Z,11.05
2023-02-27T19:26:25.081Z,8.07
2023-02-27T19:28:54.240Z,7.00
2023-02-27T19:31:22.644Z,5.97
2023-02-27T19:33:49.701Z,4.80
2023-02-27T19:36:18.632Z,4.13
2023-02-27T19:38:45.297Z,3.58
2023-02-27T19:41:14.827Z,3.95
2023-02-27T19:43:42.030Z,3.83
2023-02-27T19:46:11.704Z,3.13
2023-02-27T19:48:38.882Z,2.45
2023-02-27T19:51:08.102Z,2.60
2023-02-27T19:53:36.607Z,2.95
2023-02-27T19:56:06.396Z,3.35
2023-02-27T19:58:35.926Z,2.75
2023-02-27T20:01:04.356Z,4.80
2023-02-27T20:03:31.645Z,5.57
2023-02-27T20:05:58.412Z,4.60
2023-02-27T20:08:25.199Z,4.30
2023-02-27T20:10:56.583Z,4.85
2023-02-27T20:13:24.151Z,6.00
2023-02-27T20:16:07.249Z,6.63
2023-02-27T20:18:36.223Z,6.82
2023-02-27T20:21:12.237Z,6.85
2023-02-27T20:23:41.570Z,5.95
2023-02-27T20:26:18.932Z,6.22
2023-02-27T20:28:46.856Z,5.80
2023-02-27T20:31:18.843Z,5.90
2023-02-27T20:33:46.382Z,5.15
2023-02-27T20:36:13.600Z,4.97
2023-02-27T20:38:41.065Z,5.38
2023-02-27T20:41:09.469Z,5.50
2023-02-27T20:43:39.904Z,5.07
2023-02-27T20:46:09.077Z,5.10
2023-02-27T20:48:36.012Z,5.47
2023-02-27T20:51:14.557Z,5.80
2023-02-27T20:53:43.036Z,6.15
2023-02-27T20:56:10.549Z,6.05
2023-02-27T20:58:38.458Z,5.85
2023-02-27T21:01:12.789Z,5.60
2023-02-27T21:03:41.566Z,5.93
2023-02-27T21:08:41.049Z,6.72
2023-02-27T21:11:19.614Z,7.47
2023-02-27T21:13:47.220Z,7.57
2023-02-27T21:16:16.011Z,6.90
2023-02-27T21:21:15.992Z,7.53
2023-02-27T21:23:43.308Z,6.72
2023-02-27T21:26:18.160Z,6.75
2023-02-27T21:28:50.305Z,6.78
2023-02-27T21:31:19.484Z,6.60
2023-02-27T21:33:46.551Z,6.40
2023-02-27T21:36:13.400Z,6.53
2023-02-27T21:38:40.463Z,6.63
2023-02-27T21:41:11.434Z,6.80
2023-02-27T21:43:40.503Z,7.13
2023-02-27T21:46:10.819Z,7.25
2023-02-27T21:48:38.280Z,7.40
2023-02-27T21:51:05.611Z,7.38
2023-02-27T21:53:33.164Z,7.95
2023-02-27T21:56:05.612Z,8.07
2023-02-27T21:58:33.010Z,8.13
2023-02-27T22:01:00.364Z,8.52
2023-02-27T22:03:34.180Z,9.00
2023-02-27T22:06:02.121Z,9.80
2023-02-27T22:08:29.024Z,9.47
2023-02-27T22:11:00.298Z,9.50
2023-02-27T22:13:27.695Z,9.68
2023-02-27T22:15:54.562Z,9.38
2023-02-27T22:18:21.385Z,9.00
2023-02-27T22:20:48.595Z,9.45
2023-02-27T22:23:15.269Z,9.88
2023-02-27T22:25:42.441Z,9.32
2023-02-27T22:28:09.309Z,8.80
2023-02-27T22:30:36.407Z,9.45
2023-02-27T22:33:03.538Z,9.02
2023-02-27T22:35:32.096Z,8.90
2023-02-27T22:37:58.924Z,9.20
2023-02-27T22:40:26.107Z,9.23
2023-02-27T22:42:53.206Z,8.13
2023-02-27T22:45:19.963Z,7.60
2023-02-27T22:47:47.022Z,7.68
2023-02-27T22:50:14.638Z,7.30
2023-02-27T22:52:41.377Z,7.15
2023-02-27T22:55:08.625Z,7.22
2023-02-27T22:57:35.426Z,7.20
2023-02-27T23:00:02.104Z,6.45
2023-02-27T23:02:33.328Z,7.00
2023-02-27T23:05:00.392Z,6.57
2023-02-27T23:07:27.181Z,5.32
2023-02-27T23:09:54.946Z,6.15
2023-02-27T23:12:21.705Z,6.00
2023-02-27T23:14:49.467Z,6.00
2023-02-27T23:17:16.195Z,5.63
2023-02-27T23:19:43.839Z,5.95
2023-02-27T23:22:10.492Z,5.70
2023-02-27T23:24:39.235Z,5.82
2023-02-27T23:27:23.407Z,5.55
2023-02-27T23:29:52.082Z,5.05
2023-02-27T23:32:18.971Z,5.35
2023-02-27T23:34:49.664Z,6.07
2023-02-27T23:37:16.673Z,5.88
2023-02-27T23:39:43.336Z,5.32
2023-02-27T23:42:10.067Z,5.32
2023-02-27T23:44:55.235Z,4.55
2023-02-27T23:47:40.573Z,3.95
2023-02-27T23:50:08.001Z,4.20
2023-02-27T23:52:34.783Z,4.97
2023-02-27T23:55:01.475Z,5.07
2023-02-27T23:57:28.378Z,4.50
2023-02-27T23:59:55.036Z,4.53
